createdAt,value
2018-03-18T00:00:21.338Z,17.07
2018-03-18T00:02:50.375Z,14.07
2018-03-18T00:05:18.668Z,19.37
2018-03-18T00:07:47.170Z,17.57
2018-03-18T00:28:19.669Z,23.03
2018-03-18T00:30:48.012Z,22.27
2018-03-18T00:33:16.313Z,18.67
2018-03-18T00:53:49.158Z,18.90
2018-03-18T00:56:17.431Z,25.90
2018-03-18T00:58:45.733Z,21.97
2018-03-18T01:01:14.997Z,27.97
2018-03-18T01:21:45.789Z,30.60
2018-03-18T01:24:14.892Z,29.77
2018-03-18T01:26:43.918Z,30.33
2018-03-18T01:29:12.197Z,27.63
2018-03-18T01:31:40.711Z,22.53
2018-03-18T01:34:08.980Z,30.27
2018-03-18T01:36:37.260Z,29.27
2018-03-18T01:39:05.672Z,29.33
2018-03-18T01:41:33.956Z,22.47
2018-03-18T01:44:02.232Z,32.90
2018-03-18T01:46:30.746Z,30.00
2018-03-18T01:48:59.128Z,30.90
2018-03-18T01:51:27.387Z,30.67
2018-03-18T01:53:55.714Z,31.63
2018-03-18T01:56:24.076Z,29.27
2018-03-18T01:58:53.104Z,30.83
2018-03-18T02:01:21.424Z,34.30
2018-03-18T02:03:49.700Z,34.83
2018-03-18T02:06:17.963Z,35.93
2018-03-18T02:08:46.211Z,31.67
2018-03-18T02:11:14.513Z,32.23
2018-03-18T02:13:42.772Z,34.77
2018-03-18T02:16:11.066Z,36.43
2018-03-18T02:18:39.345Z,35.10
2018-03-18T02:21:07.587Z,25.03
2018-03-18T02:23:35.888Z,33.27
2018-03-18T02:26:04.134Z,25.80
2018-03-18T02:46:37.236Z,26.57
2018-03-18T02:49:05.503Z,36.37
2018-03-18T02:51:33.779Z,26.50
2018-03-18T02:54:02.046Z,36.00
2018-03-18T02:56:30.325Z,27.90
2018-03-18T02:58:58.560Z,34.90
2018-03-18T03:01:27.829Z,26.30
2018-03-18T03:03:56.092Z,38.60
2018-03-18T03:06:24.375Z,36.40
2018-03-18T03:26:59.662Z,35.20
2018-03-18T03:29:27.933Z,27.70
2018-03-18T03:31:56.254Z,36.97
2018-03-18T03:34:25.570Z,38.67
2018-03-18T03:36:54.599Z,25.50
2018-03-18T03:39:22.878Z,39.27
2018-03-18T03:41:51.346Z,28.70
2018-03-18T03:44:19.599Z,36.23
2018-03-18T03:46:48.705Z,35.47
2018-03-18T03:49:17.997Z,40.77
2018-03-18T03:51:46.355Z,37.40
2018-03-18T03:54:14.583Z,26.47
2018-03-18T03:56:42.909Z,37.83
2018-03-18T03:59:11.143Z,27.57
2018-03-18T04:19:43.408Z,39.13
2018-03-18T04:22:11.757Z,28.00
2018-03-18T04:24:40.012Z,40.60
2018-03-18T04:27:08.535Z,33.87
2018-03-18T04:29:36.941Z,39.33
2018-03-18T04:32:05.240Z,34.67
2018-03-18T04:34:34.496Z,37.50
2018-03-18T04:37:02.805Z,38.27
2018-03-18T04:39:31.035Z,40.17
2018-03-18T04:41:59.317Z,35.73
2018-03-18T05:02:32.759Z,28.93
2018-03-18T05:05:01.240Z,40.10
2018-03-18T05:07:29.479Z,32.23
2018-03-18T05:09:57.789Z,41.63
2018-03-18T05:12:26.104Z,43.80
2018-03-18T05:14:54.405Z,39.57
2018-03-18T05:17:23.463Z,31.50
2018-03-18T05:19:51.872Z,42.27
2018-03-18T05:22:20.176Z,45.53
2018-03-18T05:24:48.478Z,31.40
2018-03-18T05:27:16.916Z,43.43
2018-03-18T05:29:45.159Z,46.33
2018-03-18T05:32:13.472Z,35.13
2018-03-18T05:34:41.759Z,48.33
2018-03-18T05:55:15.563Z,34.40
2018-03-18T05:57:44.012Z,46.97
2018-03-18T06:00:12.254Z,34.37
2018-03-18T06:02:40.510Z,44.17
2018-03-18T06:05:08.849Z,32.03
2018-03-18T06:07:37.116Z,34.47
2018-03-18T06:10:05.380Z,45.53
2018-03-18T06:12:34.489Z,34.33
2018-03-18T06:15:03.172Z,45.00
2018-03-18T06:35:34.747Z,42.53
2018-03-18T06:38:03.061Z,32.47
2018-03-18T06:40:31.330Z,36.37
2018-03-18T06:42:59.640Z,43.77
2018-03-18T06:45:27.917Z,35.40
2018-03-18T06:47:56.147Z,41.43
2018-03-18T06:50:25.303Z,43.00
2018-03-18T06:52:53.592Z,32.47
2018-03-18T06:55:21.891Z,44.97
2018-03-18T06:57:50.190Z,33.50
2018-03-18T07:00:19.190Z,41.27
2018-03-18T07:02:47.878Z,31.17
2018-03-18T07:23:27.675Z,33.63
2018-03-18T07:25:55.958Z,31.63
2018-03-18T07:28:24.261Z,45.37
2018-03-18T07:30:52.555Z,36.83
2018-03-18T07:33:20.795Z,47.20
2018-03-18T07:35:49.076Z,44.53
2018-03-18T07:38:17.549Z,33.23
2018-03-18T07:40:45.835Z,40.93
2018-03-18T07:43:14.103Z,44.37
2018-03-18T07:45:42.407Z,41.93
2018-03-18T07:48:10.679Z,42.63
2018-03-18T07:50:38.998Z,36.93
2018-03-18T08:11:12.242Z,32.37
2018-03-18T08:13:41.240Z,42.17
2018-03-18T08:16:09.544Z,32.77
2018-03-18T08:18:37.822Z,42.77
2018-03-18T08:39:08.498Z,33.93
2018-03-18T08:41:37.008Z,43.03
2018-03-18T08:44:05.280Z,47.67
2018-03-18T08:46:33.560Z,46.80
2018-03-18T08:49:01.920Z,34.23
2018-03-18T08:51:30.228Z,46.57
2018-03-18T08:53:58.471Z,35.53
2018-03-18T09:14:31.240Z,34.90
2018-03-18T09:35:02.916Z,49.47
2018-03-18T09:37:31.166Z,34.87
2018-03-18T09:58:02.004Z,43.83
2018-03-18T10:00:30.292Z,39.20
2018-03-18T10:02:58.599Z,48.80
2018-03-18T10:05:26.902Z,47.53
2018-03-18T10:07:55.577Z,37.57
2018-03-18T10:28:28.171Z,49.90
2018-03-18T10:30:56.689Z,37.23
2018-03-18T10:33:25.719Z,50.13
2018-03-18T10:35:53.966Z,46.40
2018-03-18T10:38:23.245Z,47.97
2018-03-18T10:40:51.516Z,44.57
2018-03-18T10:43:19.863Z,46.50
2018-03-18T10:45:48.380Z,52.03
2018-03-18T10:48:16.653Z,36.33
2018-03-18T10:50:44.913Z,50.00
2018-03-18T10:53:13.202Z,49.63
2018-03-18T11:13:46.764Z,47.17
2018-03-18T11:16:15.051Z,38.40
2018-03-18T11:18:44.379Z,45.33
2018-03-18T11:21:12.665Z,48.50
2018-03-18T11:41:44.980Z,43.47
2018-03-18T11:44:13.234Z,52.40
2018-03-18T11:46:41.535Z,49.93
2018-03-18T12:07:12.489Z,48.03
2018-03-18T12:09:40.782Z,47.07
2018-03-18T12:12:09.022Z,47.67
2018-03-18T12:14:37.356Z,47.00
2018-03-18T12:17:05.645Z,46.60
2018-03-18T12:19:33.913Z,47.87
2018-03-18T12:40:19.215Z,46.67
2018-03-18T12:42:59.465Z,49.63
2018-03-18T12:45:27.944Z,52.13
2018-03-18T12:47:56.229Z,46.40
2018-03-18T12:50:24.508Z,52.43
2018-03-18T12:52:53.029Z,51.53
2018-03-18T12:55:22.080Z,50.57
2018-03-18T12:57:50.401Z,47.67
2018-03-18T13:00:18.902Z,53.10
2018-03-18T13:02:47.932Z,51.73
2018-03-18T13:05:16.171Z,48.63
2018-03-18T13:07:45.348Z,48.80
2018-03-18T13:10:13.653Z,46.40
2018-03-18T13:12:41.887Z,34.90
2018-03-18T13:33:14.326Z,46.53
2018-03-18T13:35:43.400Z,46.80
2018-03-18T13:38:11.674Z,50.17
2018-03-18T13:40:39.950Z,53.03
2018-03-18T14:01:11.305Z,46.17
2018-03-18T14:03:40.435Z,51.17
2018-03-18T14:06:08.733Z,47.83
2018-03-18T14:08:36.970Z,49.13
2018-03-18T14:11:05.387Z,49.07
2018-03-18T14:31:37.122Z,41.50
2018-03-18T14:34:05.881Z,54.87
2018-03-18T14:36:34.923Z,60.90
2018-03-18T14:57:07.717Z,51.07
2018-03-18T15:17:39.848Z,48.33
2018-03-18T15:20:08.175Z,47.33
2018-03-18T15:22:36.448Z,45.57
2018-03-18T15:25:04.746Z,48.23
2018-03-18T15:27:33.073Z,47.90
2018-03-18T15:30:02.168Z,49.77
2018-03-18T15:50:35.671Z,48.90
2018-03-18T15:53:03.939Z,48.50
2018-03-18T15:55:32.217Z,47.77
2018-03-18T16:16:05.867Z,49.20
2018-03-18T16:18:34.109Z,51.53
2018-03-18T16:39:08.380Z,39.77
2018-03-18T16:59:39.996Z,50.30
2018-03-18T17:20:12.319Z,51.67
2018-03-18T17:22:40.942Z,50.60
2018-03-18T17:43:14.660Z,52.83
2018-03-18T17:45:55.024Z,47.83
2018-03-18T17:48:35.283Z,51.27
2018-03-18T18:09:07.579Z,46.37
2018-03-18T18:11:35.886Z,49.63
2018-03-18T18:32:08.231Z,51.83
2018-03-18T18:34:36.706Z,40.27
2018-03-18T18:37:04.970Z,49.50
2018-03-18T18:39:33.222Z,50.90
2018-03-18T19:00:06.497Z,36.07
2018-03-18T19:02:34.767Z,46.93
2018-03-18T19:05:03.014Z,47.23
2018-03-18T19:07:31.320Z,38.63
2018-03-18T19:09:59.601Z,52.30
2018-03-18T19:30:29.560Z,54.70
2018-03-18T19:32:57.843Z,52.33
2018-03-18T19:53:32.705Z,52.93
2018-03-18T20:14:03.680Z,51.87
2018-03-18T20:16:31.937Z,55.27
2018-03-18T20:19:00.183Z,45.97
2018-03-18T20:21:28.498Z,50.37
2018-03-18T20:23:56.811Z,48.93
2018-03-18T20:26:25.896Z,52.43
2018-03-18T20:46:59.053Z,38.30
2018-03-18T20:49:27.325Z,52.60
2018-03-18T21:09:59.256Z,49.47
2018-03-18T21:30:30.974Z,51.30
2018-03-18T21:32:59.296Z,56.37
2018-03-18T21:35:27.593Z,47.33
2018-03-18T21:56:00.016Z,51.97
2018-03-18T21:58:29.023Z,49.63
2018-03-18T22:00:58.026Z,57.80
2018-03-18T22:03:26.544Z,50.97
2018-03-18T22:05:54.854Z,50.57
2018-03-18T22:08:23.104Z,48.00
2018-03-18T22:10:51.463Z,53.23
2018-03-18T22:13:19.746Z,51.47
2018-03-18T22:15:47.995Z,48.50
2018-03-18T22:36:20.299Z,49.90
2018-03-18T22:38:49.405Z,48.47
2018-03-18T22:59:22.398Z,47.10
2018-03-18T23:01:50.692Z,47.10
2018-03-18T23:04:19.748Z,49.33
2018-03-18T23:24:50.459Z,50.20
2018-03-18T23:45:23.115Z,49.77
2018-03-18T23:47:51.408Z,52.67
2018-03-18T23:50:19.696Z,50.03
2018-03-18T23:52:47.933Z,41.20
2018-03-18T23:55:16.440Z,53.13
2018-03-18T23:57:44.678Z,52.80
